sensor_id;sensor_type;location;lat;lon;timestamp;P1;durP1;ratioP1;P2;durP2;ratioP2
3943;SDS011;1986;52.546;13.428;2022-12-29T00:02:23;6.00;;;5.80;;
3943;SDS011;1986;52.546;13.428;2022-12-29T00:04:50;4.93;;;4.73;;
3943;SDS011;1986;52.546;13.428;2022-12-29T00:07:17;4.50;;;4.30;;
3943;SDS011;1986;52.546;13.428;2022-12-29T00:09:44;4.20;;;4.20;;
3943;SDS011;1986;52.546;13.428;2022-12-29T00:12:11;4.20;;;4.20;;
3943;SDS011;1986;52.546;13.428;2022-12-29T00:14:39;3.70;;;3.70;;
3943;SDS011;1986;52.546;13.428;2022-12-29T00:17:24;3.67;;;3.67;;
3943;SDS011;1986;52.546;13.428;2022-12-29T00:19:51;4.10;;;4.03;;
3943;SDS011;1986;52.546;13.428;2022-12-29T00:22:35;4.40;;;4.30;;
3943;SDS011;1986;52.546;13.428;2022-12-29T00:25:19;4.47;;;4.37;;
3943;SDS011;1986;52.546;13.428;2022-12-29T00:28:04;4.50;;;4.40;;
3943;SDS011;1986;52.546;13.428;2022-12-29T00:30:52;5.20;;;5.10;;
3943;SDS011;1986;52.546;13.428;2022-12-29T00:33:36;5.00;;;4.90;;
3943;SDS011;1986;52.546;13.428;2022-12-29T00:36:21;4.93;;;4.83;;
3943;SDS011;1986;52.546;13.428;2022-12-29T00:38:51;4.60;;;4.50;;
3943;SDS011;1986;52.546;13.428;2022-12-29T00:41:39;5.40;;;5.30;;
3943;SDS011;1986;52.546;13.428;2022-12-29T00:44:24;5.30;;;5.20;;
3943;SDS011;1986;52.546;13.428;2022-12-29T00:46:52;5.33;;;5.13;;
3943;SDS011;1986;52.546;13.428;2022-12-29T00:49:19;4.90;;;4.80;;
3943;SDS011;1986;52.546;13.428;2022-12-29T00:52:00;5.97;;;5.70;;
3943;SDS011;1986;52.546;13.428;2022-12-29T00:54:29;5.77;;;5.67;;
3943;SDS011;1986;52.546;13.428;2022-12-29T00:56:57;5.53;;;5.43;;
3943;SDS011;1986;52.546;13.428;2022-12-29T00:59:24;5.67;;;5.57;;
3943;SDS011;1986;52.546;13.428;2022-12-29T01:01:53;5.37;;;5.27;;
3943;SDS011;1986;52.546;13.428;2022-12-29T01:04:21;5.43;;;5.23;;
3943;SDS011;1986;52.546;13.428;2022-12-29T01:06:50;5.13;;;5.03;;
3943;SDS011;1986;52.546;13.428;2022-12-29T01:09:17;5.23;;;5.13;;
3943;SDS011;1986;52.546;13.428;2022-12-29T01:12:03;5.00;;;4.90;;
3943;SDS011;1986;52.546;13.428;2022-12-29T01:14:31;4.90;;;4.80;;
3943;SDS011;1986;52.546;13.428;2022-12-29T01:17:00;4.90;;;4.67;;
3943;SDS011;1986;52.546;13.428;2022-12-29T01:19:27;4.80;;;4.70;;
3943;SDS011;1986;52.546;13.428;2022-12-29T01:21:54;5.97;;;5.77;;
3943;SDS011;1986;52.546;13.428;2022-12-29T01:24:21;4.80;;;4.70;;
3943;SDS011;1986;52.546;13.428;2022-12-29T01:26:49;6.03;;;5.93;;
3943;SDS011;1986;52.546;13.428;2022-12-29T01:29:16;5.67;;;5.57;;
3943;SDS011;1986;52.546;13.428;2022-12-29T01:31:43;5.43;;;5.33;;
3943;SDS011;1986;52.546;13.428;2022-12-29T01:34:12;5.00;;;4.90;;
3943;SDS011;1986;52.546;13.428;2022-12-29T01:36:39;5.50;;;5.40;;
3943;SDS011;1986;52.546;13.428;2022-12-29T01:39:06;4.90;;;4.80;;
3943;SDS011;1986;52.546;13.428;2022-12-29T01:41:33;5.87;;;5.77;;
3943;SDS011;1986;52.546;13.428;2022-12-29T01:43:59;5.90;;;5.70;;
3943;SDS011;1986;52.546;13.428;2022-12-29T01:46:28;5.30;;;5.20;;
3943;SDS011;1986;52.546;13.428;2022-12-29T01:48:59;5.33;;;5.23;;
3943;SDS011;1986;52.546;13.428;2022-12-29T01:51:33;6.40;;;6.30;;
3943;SDS011;1986;52.546;13.428;2022-12-29T01:54:04;5.30;;;5.20;;
3943;SDS011;1986;52.546;13.428;2022-12-29T01:56:35;5.83;;;5.63;;
3943;SDS011;1986;52.546;13.428;2022-12-29T01:59:04;5.30;;;5.20;;
3943;SDS011;1986;52.546;13.428;2022-12-29T02:01:36;22.47;;;6.47;;
3943;SDS011;1986;52.546;13.428;2022-12-29T02:04:03;5.20;;;5.10;;
3943;SDS011;1986;52.546;13.428;2022-12-29T02:06:33;4.90;;;4.80;;
3943;SDS011;1986;52.546;13.428;2022-12-29T02:09:03;5.23;;;5.13;;
3943;SDS011;1986;52.546;13.428;2022-12-29T02:11:30;4.93;;;4.83;;
3943;SDS011;1986;52.546;13.428;2022-12-29T02:13:57;5.17;;;5.07;;
3943;SDS011;1986;52.546;13.428;2022-12-29T02:16:33;4.90;;;4.80;;
3943;SDS011;1986;52.546;13.428;2022-12-29T02:19:20;5.23;;;5.03;;
3943;SDS011;1986;52.546;13.428;2022-12-29T02:22:25;4.80;;;4.70;;
3943;SDS011;1986;52.546;13.428;2022-12-29T02:25:14;4.67;;;4.57;;
3943;SDS011;1986;52.546;13.428;2022-12-29T02:31:16;5.07;;;4.93;;
3943;SDS011;1986;52.546;13.428;2022-12-29T02:33:50;4.90;;;4.80;;
3943;SDS011;1986;52.546;13.428;2022-12-29T02:36:29;5.03;;;4.93;;
3943;SDS011;1986;52.546;13.428;2022-12-29T02:39:05;5.00;;;4.90;;
3943;SDS011;1986;52.546;13.428;2022-12-29T02:41:41;4.90;;;4.80;;
3943;SDS011;1986;52.546;13.428;2022-12-29T02:44:16;5.50;;;5.40;;
3943;SDS011;1986;52.546;13.428;2022-12-29T02:46:55;5.87;;;5.77;;
3943;SDS011;1986;52.546;13.428;2022-12-29T02:49:27;6.20;;;6.10;;
3943;SDS011;1986;52.546;13.428;2022-12-29T02:52:02;7.43;;;7.23;;
3943;SDS011;1986;52.546;13.428;2022-12-29T02:54:32;6.93;;;6.83;;
3943;SDS011;1986;52.546;13.428;2022-12-29T02:57:12;7.17;;;7.07;;
3943;SDS011;1986;52.546;13.428;2022-12-29T02:59:42;7.00;;;6.90;;
3943;SDS011;1986;52.546;13.428;2022-12-29T03:02:26;8.07;;;7.87;;
3943;SDS011;1986;52.546;13.428;2022-12-29T03:05:25;8.63;;;8.33;;
3943;SDS011;1986;52.546;13.428;2022-12-29T03:08:06;9.27;;;9.00;;
3943;SDS011;1986;52.546;13.428;2022-12-29T03:10:44;9.67;;;9.37;;
3943;SDS011;1986;52.546;13.428;2022-12-29T03:13:23;10.23;;;9.73;;
3943;SDS011;1986;52.546;13.428;2022-12-29T03:16:14;9.77;;;9.53;;
3943;SDS011;1986;52.546;13.428;2022-12-29T03:18:53;9.93;;;9.73;;
3943;SDS011;1986;52.546;13.428;2022-12-29T03:21:29;9.90;;;9.70;;
3943;SDS011;1986;52.546;13.428;2022-12-29T03:24:16;9.97;;;9.77;;
3943;SDS011;1986;52.546;13.428;2022-12-29T03:26:46;11.00;;;10.70;;
3943;SDS011;1986;52.546;13.428;2022-12-29T03:29:15;9.73;;;9.53;;
3943;SDS011;1986;52.546;13.428;2022-12-29T03:31:43;10.30;;;10.10;;
3943;SDS011;1986;52.546;13.428;2022-12-29T03:34:13;10.90;;;10.60;;
3943;SDS011;1986;52.546;13.428;2022-12-29T03:36:44;10.50;;;10.30;;
3943;SDS011;1986;52.546;13.428;2022-12-29T03:39:16;11.73;;;11.13;;
3943;SDS011;1986;52.546;13.428;2022-12-29T03:41:44;10.20;;;10.00;;
3943;SDS011;1986;52.546;13.428;2022-12-29T03:44:12;10.17;;;9.97;;
3943;SDS011;1986;52.546;13.428;2022-12-29T03:46:39;11.33;;;11.03;;
3943;SDS011;1986;52.546;13.428;2022-12-29T03:49:06;11.10;;;10.80;;
3943;SDS011;1986;52.546;13.428;2022-12-29T03:51:35;11.20;;;10.90;;
3943;SDS011;1986;52.546;13.428;2022-12-29T03:54:02;11.00;;;10.70;;
3943;SDS011;1986;52.546;13.428;2022-12-29T03:56:29;11.30;;;11.00;;
3943;SDS011;1986;52.546;13.428;2022-12-29T03:58:56;11.40;;;11.10;;
3943;SDS011;1986;52.546;13.428;2022-12-29T04:01:23;10.73;;;10.43;;
3943;SDS011;1986;52.546;13.428;2022-12-29T04:03:50;11.43;;;11.13;;
3943;SDS011;1986;52.546;13.428;2022-12-29T04:06:17;11.20;;;10.90;;
3943;SDS011;1986;52.546;13.428;2022-12-29T04:08:46;11.70;;;11.40;;
3943;SDS011;1986;52.546;13.428;2022-12-29T04:11:13;11.00;;;10.70;;
3943;SDS011;1986;52.546;13.428;2022-12-29T04:13:40;10.70;;;10.47;;
3943;SDS011;1986;52.546;13.428;2022-12-29T04:16:07;10.30;;;10.10;;
3943;SDS011;1986;52.546;13.428;2022-12-29T04:18:34;11.50;;;10.93;;
3943;SDS011;1986;52.546;13.428;2022-12-29T04:21:01;10.60;;;10.40;;
3943;SDS011;1986;52.546;13.428;2022-12-29T04:23:29;10.70;;;10.40;;
3943;SDS011;1986;52.546;13.428;2022-12-29T04:26:00;10.97;;;10.67;;
3943;SDS011;1986;52.546;13.428;2022-12-29T04:28:28;10.80;;;10.50;;
3943;SDS011;1986;52.546;13.428;2022-12-29T04:30:55;11.37;;;11.03;;
3943;SDS011;1986;52.546;13.428;2022-12-29T04:33:22;11.27;;;10.93;;
3943;SDS011;1986;52.546;13.428;2022-12-29T04:35:49;10.73;;;10.43;;
3943;SDS011;1986;52.546;13.428;2022-12-29T04:38:18;11.67;;;10.83;;
3943;SDS011;1986;52.546;13.428;2022-12-29T04:40:45;10.50;;;10.30;;
3943;SDS011;1986;52.546;13.428;2022-12-29T04:43:13;10.80;;;10.50;;
3943;SDS011;1986;52.546;13.428;2022-12-29T04:45:42;10.17;;;9.97;;
3943;SDS011;1986;52.546;13.428;2022-12-29T04:48:10;11.40;;;11.10;;
3943;SDS011;1986;52.546;13.428;2022-12-29T04:50:36;10.97;;;10.67;;
3943;SDS011;1986;52.546;13.428;2022-12-29T04:53:06;10.47;;;10.27;;
3943;SDS011;1986;52.546;13.428;2022-12-29T04:55:33;11.70;;;11.40;;
3943;SDS011;1986;52.546;13.428;2022-12-29T04:58:00;11.30;;;11.00;;
3943;SDS011;1986;52.546;13.428;2022-12-29T05:00:29;11.60;;;11.30;;
3943;SDS011;1986;52.546;13.428;2022-12-29T05:02:57;11.10;;;10.80;;
3943;SDS011;1986;52.546;13.428;2022-12-29T05:05:24;11.00;;;10.70;;
3943;SDS011;1986;52.546;13.428;2022-12-29T05:07:51;11.10;;;10.80;;
3943;SDS011;1986;52.546;13.428;2022-12-29T05:10:18;11.93;;;11.43;;
3943;SDS011;1986;52.546;13.428;2022-12-29T05:12:45;11.10;;;10.80;;
3943;SDS011;1986;52.546;13.428;2022-12-29T05:15:12;11.20;;;10.90;;
3943;SDS011;1986;52.546;13.428;2022-12-29T05:17:41;11.10;;;10.80;;
3943;SDS011;1986;52.546;13.428;2022-12-29T05:20:08;10.80;;;10.50;;
3943;SDS011;1986;52.546;13.428;2022-12-29T05:22:36;10.13;;;9.93;;
3943;SDS011;1986;52.546;13.428;2022-12-29T05:25:03;10.67;;;10.40;;
3943;SDS011;1986;52.546;13.428;2022-12-29T05:27:31;11.03;;;10.63;;
3943;SDS011;1986;52.546;13.428;2022-12-29T05:29:58;10.80;;;10.50;;
3943;SDS011;1986;52.546;13.428;2022-12-29T05:32:25;11.03;;;10.73;;
3943;SDS011;1986;52.546;13.428;2022-12-29T05:34:53;10.57;;;10.27;;
3943;SDS011;1986;52.546;13.428;2022-12-29T05:37:20;10.30;;;10.10;;
3943;SDS011;1986;52.546;13.428;2022-12-29T05:39:47;10.40;;;10.17;;
3943;SDS011;1986;52.546;13.428;2022-12-29T05:42:14;10.40;;;10.20;;
3943;SDS011;1986;52.546;13.428;2022-12-29T05:44:41;10.40;;;10.10;;
3943;SDS011;1986;52.546;13.428;2022-12-29T05:47:08;10.50;;;10.30;;
3943;SDS011;1986;52.546;13.428;2022-12-29T05:49:35;10.50;;;10.30;;
3943;SDS011;1986;52.546;13.428;2022-12-29T05:52:03;11.87;;;11.37;;
3943;SDS011;1986;52.546;13.428;2022-12-29T05:54:30;10.67;;;10.37;;
3943;SDS011;1986;52.546;13.428;2022-12-29T05:56:57;11.67;;;11.30;;
3943;SDS011;1986;52.546;13.428;2022-12-29T05:59:24;11.20;;;10.90;;
3943;SDS011;1986;52.546;13.428;2022-12-29T06:01:51;11.70;;;11.30;;
3943;SDS011;1986;52.546;13.428;2022-12-29T06:04:18;10.87;;;10.57;;
3943;SDS011;1986;52.546;13.428;2022-12-29T06:06:45;11.83;;;11.43;;
3943;SDS011;1986;52.546;13.428;2022-12-29T06:09:14;11.40;;;11.10;;
3943;SDS011;1986;52.546;13.428;2022-12-29T06:11:41;11.57;;;11.27;;
3943;SDS011;1986;52.546;13.428;2022-12-29T06:14:08;11.40;;;11.10;;
3943;SDS011;1986;52.546;13.428;2022-12-29T06:16:35;12.00;;;11.60;;
3943;SDS011;1986;52.546;13.428;2022-12-29T06:19:02;12.20;;;11.80;;
3943;SDS011;1986;52.546;13.428;2022-12-29T06:21:29;11.00;;;10.70;;
3943;SDS011;1986;52.546;13.428;2022-12-29T06:23:56;12.23;;;11.73;;
3943;SDS011;1986;52.546;13.428;2022-12-29T06:26:24;10.93;;;10.63;;
3943;SDS011;1986;52.546;13.428;2022-12-29T06:28:51;11.40;;;11.10;;
3943;SDS011;1986;52.546;13.428;2022-12-29T06:31:18;11.17;;;10.87;;
3943;SDS011;1986;52.546;13.428;2022-12-29T06:33:45;10.80;;;10.50;;
3943;SDS011;1986;52.546;13.428;2022-12-29T06:36:12;12.53;;;11.83;;
3943;SDS011;1986;52.546;13.428;2022-12-29T06:38:39;11.50;;;11.20;;
3943;SDS011;1986;52.546;13.428;2022-12-29T06:41:06;11.80;;;11.40;;
3943;SDS011;1986;52.546;13.428;2022-12-29T06:43:34;11.30;;;11.00;;
3943;SDS011;1986;52.546;13.428;2022-12-29T06:46:03;11.30;;;11.00;;
3943;SDS011;1986;52.546;13.428;2022-12-29T06:48:30;11.63;;;11.33;;
3943;SDS011;1986;52.546;13.428;2022-12-29T06:50:57;11.70;;;11.40;;
3943;SDS011;1986;52.546;13.428;2022-12-29T06:53:24;12.00;;;11.70;;
3943;SDS011;1986;52.546;13.428;2022-12-29T06:55:51;12.00;;;11.70;;
3943;SDS011;1986;52.546;13.428;2022-12-29T06:58:18;12.10;;;11.70;;
3943;SDS011;1986;52.546;13.428;2022-12-29T07:00:46;12.77;;;12.37;;
3943;SDS011;1986;52.546;13.428;2022-12-29T07:03:13;12.60;;;12.20;;
3943;SDS011;1986;52.546;13.428;2022-12-29T07:05:40;12.13;;;11.80;;
3943;SDS011;1986;52.546;13.428;2022-12-29T07:08:07;12.70;;;12.30;;
3943;SDS011;1986;52.546;13.428;2022-12-29T07:10:34;12.10;;;11.80;;
3943;SDS011;1986;52.546;13.428;2022-12-29T07:13:01;11.97;;;11.67;;
3943;SDS011;1986;52.546;13.428;2022-12-29T07:15:28;12.40;;;12.00;;
3943;SDS011;1986;52.546;13.428;2022-12-29T07:17:56;12.67;;;12.27;;
3943;SDS011;1986;52.546;13.428;2022-12-29T07:20:23;12.10;;;11.80;;
3943;SDS011;1986;52.546;13.428;2022-12-29T07:22:50;12.50;;;12.10;;
3943;SDS011;1986;52.546;13.428;2022-12-29T07:25:17;11.63;;;11.33;;
3943;SDS011;1986;52.546;13.428;2022-12-29T07:27:44;11.50;;;11.20;;
3943;SDS011;1986;52.546;13.428;2022-12-29T07:30:11;11.33;;;11.03;;
3943;SDS011;1986;52.546;13.428;2022-12-29T07:32:39;12.13;;;11.73;;
3943;SDS011;1986;52.546;13.428;2022-12-29T07:35:08;11.80;;;11.50;;
3943;SDS011;1986;52.546;13.428;2022-12-29T07:37:35;11.60;;;11.30;;
3943;SDS011;1986;52.546;13.428;2022-12-29T07:40:02;13.67;;;12.63;;
3943;SDS011;1986;52.546;13.428;2022-12-29T07:42:30;12.23;;;11.87;;
3943;SDS011;1986;52.546;13.428;2022-12-29T07:44:57;12.00;;;11.70;;
3943;SDS011;1986;52.546;13.428;2022-12-29T07:47:24;11.90;;;11.60;;
3943;SDS011;1986;52.546;13.428;2022-12-29T07:49:51;12.40;;;12.00;;
3943;SDS011;1986;52.546;13.428;2022-12-29T07:52:20;11.53;;;11.23;;
3943;SDS011;1986;52.546;13.428;2022-12-29T07:54:47;11.30;;;11.00;;
3943;SDS011;1986;52.546;13.428;2022-12-29T07:57:14;11.40;;;11.00;;
3943;SDS011;1986;52.546;13.428;2022-12-29T07:59:41;13.10;;;12.47;;
3943;SDS011;1986;52.546;13.428;2022-12-29T08:02:09;11.90;;;11.60;;
3943;SDS011;1986;52.546;13.428;2022-12-29T08:04:36;12.00;;;11.60;;
3943;SDS011;1986;52.546;13.428;2022-12-29T08:07:03;11.57;;;11.27;;
3943;SDS011;1986;52.546;13.428;2022-12-29T08:09:31;10.83;;;10.53;;
3943;SDS011;1986;52.546;13.428;2022-12-29T08:11:58;11.80;;;11.50;;
3943;SDS011;1986;52.546;13.428;2022-12-29T08:14:25;10.93;;;10.63;;
3943;SDS011;1986;52.546;13.428;2022-12-29T08:16:52;11.47;;;11.17;;
3943;SDS011;1986;52.546;13.428;2022-12-29T08:19:19;12.00;;;11.70;;
3943;SDS011;1986;52.546;13.428;2022-12-29T08:21:46;11.17;;;10.87;;
3943;SDS011;1986;52.546;13.428;2022-12-29T08:24:13;11.90;;;11.40;;
3943;SDS011;1986;52.546;13.428;2022-12-29T08:26:42;11.57;;;11.27;;
3943;SDS011;1986;52.546;13.428;2022-12-29T08:29:08;11.93;;;11.60;;
3943;SDS011;1986;52.546;13.428;2022-12-29T08:31:35;12.73;;;11.73;;
3943;SDS011;1986;52.546;13.428;2022-12-29T08:34:02;11.83;;;11.43;;
3943;SDS011;1986;52.546;13.428;2022-12-29T08:36:29;11.20;;;10.90;;
3943;SDS011;1986;52.546;13.428;2022-12-29T08:38:56;12.13;;;11.73;;
3943;SDS011;1986;52.546;13.428;2022-12-29T08:41:25;11.57;;;11.27;;
3943;SDS011;1986;52.546;13.428;2022-12-29T08:43:54;11.40;;;11.10;;
3943;SDS011;1986;52.546;13.428;2022-12-29T08:46:21;11.40;;;11.10;;
3943;SDS011;1986;52.546;13.428;2022-12-29T08:48:48;11.70;;;11.40;;
3943;SDS011;1986;52.546;13.428;2022-12-29T08:51:15;11.80;;;11.50;;
3943;SDS011;1986;52.546;13.428;2022-12-29T08:53:42;12.87;;;12.37;;
3943;SDS011;1986;52.546;13.428;2022-12-29T08:56:09;12.20;;;11.80;;
3943;SDS011;1986;52.546;13.428;2022-12-29T08:58:37;12.37;;;11.97;;
3943;SDS011;1986;52.546;13.428;2022-12-29T09:01:06;12.17;;;11.80;;
3943;SDS011;1986;52.546;13.428;2022-12-29T09:03:36;12.57;;;12.10;;
3943;SDS011;1986;52.546;13.428;2022-12-29T09:06:03;13.13;;;12.57;;
3943;SDS011;1986;52.546;13.428;2022-12-29T09:08:31;12.00;;;11.70;;
3943;SDS011;1986;52.546;13.428;2022-12-29T09:11:10;13.33;;;12.90;;
3943;SDS011;1986;52.546;13.428;2022-12-29T09:13:39;12.60;;;12.10;;
3943;SDS011;1986;52.546;13.428;2022-12-29T09:16:07;15.53;;;14.40;;
3943;SDS011;1986;52.546;13.428;2022-12-29T09:18:35;13.27;;;12.77;;
3943;SDS011;1986;52.546;13.428;2022-12-29T09:21:05;13.73;;;13.03;;
3943;SDS011;1986;52.546;13.428;2022-12-29T09:23:41;14.67;;;13.63;;
3943;SDS011;1986;52.546;13.428;2022-12-29T09:26:08;12.80;;;12.30;;
3943;SDS011;1986;52.546;13.428;2022-12-29T09:28:36;12.17;;;11.83;;
3943;SDS011;1986;52.546;13.428;2022-12-29T09:31:04;13.43;;;12.93;;
3943;SDS011;1986;52.546;13.428;2022-12-29T09:33:34;12.60;;;12.20;;
3943;SDS011;1986;52.546;13.428;2022-12-29T09:36:01;13.97;;;13.47;;
3943;SDS011;1986;52.546;13.428;2022-12-29T09:38:29;14.10;;;13.60;;
3943;SDS011;1986;52.546;13.428;2022-12-29T09:40:58;14.17;;;13.37;;
3943;SDS011;1986;52.546;13.428;2022-12-29T09:43:37;12.80;;;12.40;;
3943;SDS011;1986;52.546;13.428;2022-12-29T09:46:16;12.40;;;12.00;;
3943;SDS011;1986;52.546;13.428;2022-12-29T09:48:53;12.90;;;12.50;;
3943;SDS011;1986;52.546;13.428;2022-12-29T09:51:28;12.37;;;12.00;;
3943;SDS011;1986;52.546;13.428;2022-12-29T09:53:58;12.17;;;11.87;;
3943;SDS011;1986;52.546;13.428;2022-12-29T09:56:30;12.80;;;12.10;;
3943;SDS011;1986;52.546;13.428;2022-12-29T09:58:58;13.13;;;12.73;;
3943;SDS011;1986;52.546;13.428;2022-12-29T10:01:30;12.87;;;12.47;;
3943;SDS011;1986;52.546;13.428;2022-12-29T10:04:02;13.10;;;12.70;;
3943;SDS011;1986;52.546;13.428;2022-12-29T10:06:32;12.97;;;12.57;;
3943;SDS011;1986;52.546;13.428;2022-12-29T10:09:08;12.63;;;12.23;;
3943;SDS011;1986;52.546;13.428;2022-12-29T10:11:51;12.80;;;12.40;;
3943;SDS011;1986;52.546;13.428;2022-12-29T10:14:33;12.50;;;12.00;;
3943;SDS011;1986;52.546;13.428;2022-12-29T10:17:12;13.63;;;12.80;;
3943;SDS011;1986;52.546;13.428;2022-12-29T10:19:59;12.30;;;11.97;;
3943;SDS011;1986;52.546;13.428;2022-12-29T10:22:48;12.13;;;11.83;;
3943;SDS011;1986;52.546;13.428;2022-12-29T10:25:31;12.10;;;11.77;;
3943;SDS011;1986;52.546;13.428;2022-12-29T10:28:06;12.23;;;11.93;;
3943;SDS011;1986;52.546;13.428;2022-12-29T10:30:42;11.63;;;11.33;;
3943;SDS011;1986;52.546;13.428;2022-12-29T10:33:13;12.50;;;11.97;;
3943;SDS011;1986;52.546;13.428;2022-12-29T10:35:55;12.60;;;12.20;;
3943;SDS011;1986;52.546;13.428;2022-12-29T10:38:25;13.10;;;12.60;;
3943;SDS011;1986;52.546;13.428;2022-12-29T10:40:57;14.40;;;13.57;;
3943;SDS011;1986;52.546;13.428;2022-12-29T10:43:27;13.00;;;12.60;;
3943;SDS011;1986;52.546;13.428;2022-12-29T10:45:57;14.67;;;13.00;;
3943;SDS011;1986;52.546;13.428;2022-12-29T10:48:28;69.57;;;26.03;;
3943;SDS011;1986;52.546;13.428;2022-12-29T10:51:00;15.47;;;14.67;;
3943;SDS011;1986;52.546;13.428;2022-12-29T10:53:31;15.10;;;14.10;;
3943;SDS011;1986;52.546;13.428;2022-12-29T10:56:04;12.90;;;12.50;;
3943;SDS011;1986;52.546;13.428;2022-12-29T10:58:54;13.07;;;12.67;;
3943;SDS011;1986;52.546;13.428;2022-12-29T11:01:27;14.10;;;13.60;;
3943;SDS011;1986;52.546;13.428;2022-12-29T11:04:02;13.90;;;13.40;;
3943;SDS011;1986;52.546;13.428;2022-12-29T11:06:34;14.20;;;13.60;;
3943;SDS011;1986;52.546;13.428;2022-12-29T11:09:09;13.60;;;13.13;;
3943;SDS011;1986;52.546;13.428;2022-12-29T11:11:40;13.27;;;12.77;;
3943;SDS011;1986;52.546;13.428;2022-12-29T11:14:11;14.87;;;14.20;;
3943;SDS011;1986;52.546;13.428;2022-12-29T11:16:43;13.60;;;13.10;;
3943;SDS011;1986;52.546;13.428;2022-12-29T11:19:20;13.60;;;13.10;;
3943;SDS011;1986;52.546;13.428;2022-12-29T11:21:50;14.63;;;14.03;;
3943;SDS011;1986;52.546;13.428;2022-12-29T11:24:19;14.37;;;13.63;;
3943;SDS011;1986;52.546;13.428;2022-12-29T11:26:49;13.87;;;13.37;;
3943;SDS011;1986;52.546;13.428;2022-12-29T11:29:26;13.83;;;13.23;;
3943;SDS011;1986;52.546;13.428;2022-12-29T11:31:55;13.20;;;12.80;;
3943;SDS011;1986;52.546;13.428;2022-12-29T11:34:25;14.23;;;13.67;;
3943;SDS011;1986;52.546;13.428;2022-12-29T11:37:00;13.47;;;12.97;;
3943;SDS011;1986;52.546;13.428;2022-12-29T11:39:33;14.53;;;13.93;;
3943;SDS011;1986;52.546;13.428;2022-12-29T11:42:12;14.03;;;13.43;;
3943;SDS011;1986;52.546;13.428;2022-12-29T11:44:42;13.30;;;12.90;;
3943;SDS011;1986;52.546;13.428;2022-12-29T11:47:21;13.60;;;13.10;;
3943;SDS011;1986;52.546;13.428;2022-12-29T11:49:53;13.57;;;13.07;;
3943;SDS011;1986;52.546;13.428;2022-12-29T11:52:25;13.50;;;12.70;;
3943;SDS011;1986;52.546;13.428;2022-12-29T11:54:55;12.90;;;12.40;;
3943;SDS011;1986;52.546;13.428;2022-12-29T11:57:27;12.40;;;12.00;;
3943;SDS011;1986;52.546;13.428;2022-12-29T11:59:59;12.37;;;11.97;;
3943;SDS011;1986;52.546;13.428;2022-12-29T12:02:36;12.20;;;11.80;;
3943;SDS011;1986;52.546;13.428;2022-12-29T12:05:16;13.73;;;13.23;;
3943;SDS011;1986;52.546;13.428;2022-12-29T12:07:52;11.63;;;11.23;;
3943;SDS011;1986;52.546;13.428;2022-12-29T12:10:25;11.20;;;10.90;;
3943;SDS011;1986;52.546;13.428;2022-12-29T12:13:05;11.00;;;10.70;;
3943;SDS011;1986;52.546;13.428;2022-12-29T12:15:39;9.90;;;9.70;;
3943;SDS011;1986;52.546;13.428;2022-12-29T12:18:11;9.50;;;9.20;;
3943;SDS011;1986;52.546;13.428;2022-12-29T12:20:45;8.90;;;8.70;;
3943;SDS011;1986;52.546;13.428;2022-12-29T12:23:26;8.60;;;8.20;;
3943;SDS011;1986;52.546;13.428;2022-12-29T12:26:02;6.37;;;6.27;;
3943;SDS011;1986;52.546;13.428;2022-12-29T12:28:46;6.63;;;6.53;;
3943;SDS011;1986;52.546;13.428;2022-12-29T12:31:21;5.93;;;5.83;;
3943;SDS011;1986;52.546;13.428;2022-12-29T12:33:53;6.53;;;6.43;;
3943;SDS011;1986;52.546;13.428;2022-12-29T12:36:43;5.93;;;5.83;;
3943;SDS011;1986;52.546;13.428;2022-12-29T12:39:30;6.40;;;6.30;;
3943;SDS011;1986;52.546;13.428;2022-12-29T12:42:08;6.77;;;6.63;;
3943;SDS011;1986;52.546;13.428;2022-12-29T12:44:49;6.83;;;6.63;;
3943;SDS011;1986;52.546;13.428;2022-12-29T12:47:34;6.67;;;6.57;;
3943;SDS011;1986;52.546;13.428;2022-12-29T12:50:18;6.90;;;6.70;;
3943;SDS011;1986;52.546;13.428;2022-12-29T12:53:00;8.20;;;6.40;;
3943;SDS011;1986;52.546;13.428;2022-12-29T12:59:03;6.37;;;6.27;;
3943;SDS011;1986;52.546;13.428;2022-12-29T13:01:38;6.37;;;6.27;;
3943;SDS011;1986;52.546;13.428;2022-12-29T13:04:19;7.33;;;7.17;;
3943;SDS011;1986;52.546;13.428;2022-12-29T13:07:12;7.83;;;7.53;;
3943;SDS011;1986;52.546;13.428;2022-12-29T13:09:52;7.93;;;7.73;;
3943;SDS011;1986;52.546;13.428;2022-12-29T13:12:37;7.10;;;7.00;;
3943;SDS011;1986;52.546;13.428;2022-12-29T13:15:15;6.70;;;6.60;;
3943;SDS011;1986;52.546;13.428;2022-12-29T13:17:49;7.03;;;6.93;;
3943;SDS011;1986;52.546;13.428;2022-12-29T13:20:26;7.13;;;7.03;;
3943;SDS011;1986;52.546;13.428;2022-12-29T13:22:59;7.13;;;7.03;;
3943;SDS011;1986;52.546;13.428;2022-12-29T13:25:32;6.90;;;6.70;;
3943;SDS011;1986;52.546;13.428;2022-12-29T13:28:14;6.97;;;6.87;;
3943;SDS011;1986;52.546;13.428;2022-12-29T13:30:50;6.83;;;6.73;;
3943;SDS011;1986;52.546;13.428;2022-12-29T13:33:26;6.10;;;6.00;;
3943;SDS011;1986;52.546;13.428;2022-12-29T13:36:03;6.20;;;6.10;;
3943;SDS011;1986;52.546;13.428;2022-12-29T13:38:37;6.20;;;6.10;;
3943;SDS011;1986;52.546;13.428;2022-12-29T13:41:09;6.17;;;6.07;;
3943;SDS011;1986;52.546;13.428;2022-12-29T13:43:43;5.87;;;5.77;;
3943;SDS011;1986;52.546;13.428;2022-12-29T13:46:22;5.80;;;5.70;;
3943;SDS011;1986;52.546;13.428;2022-12-29T13:48:58;5.10;;;5.00;;
3943;SDS011;1986;52.546;13.428;2022-12-29T13:51:30;5.90;;;5.70;;
3943;SDS011;1986;52.546;13.428;2022-12-29T13:54:09;5.70;;;5.60;;
3943;SDS011;1986;52.546;13.428;2022-12-29T13:56:49;6.00;;;5.90;;
3943;SDS011;1986;52.546;13.428;2022-12-29T13:59:42;5.90;;;5.70;;
3943;SDS011;1986;52.546;13.428;2022-12-29T14:02:19;6.13;;;6.03;;
3943;SDS011;1986;52.546;13.428;2022-12-29T14:04:58;5.50;;;5.40;;
3943;SDS011;1986;52.546;13.428;2022-12-29T14:07:27;5.70;;;5.60;;
3943;SDS011;1986;52.546;13.428;2022-12-29T14:09:56;5.47;;;5.37;;
3943;SDS011;1986;52.546;13.428;2022-12-29T14:12:35;5.33;;;5.23;;
3943;SDS011;1986;52.546;13.428;2022-12-29T14:15:13;5.57;;;5.47;;
3943;SDS011;1986;52.546;13.428;2022-12-29T14:17:59;5.40;;;5.30;;
3943;SDS011;1986;52.546;13.428;2022-12-29T14:20:33;5.53;;;5.43;;
3943;SDS011;1986;52.546;13.428;2022-12-29T14:23:15;64.77;;;7.00;;
3943;SDS011;1986;52.546;13.428;2022-12-29T14:26:11;5.60;;;5.40;;
3943;SDS011;1986;52.546;13.428;2022-12-29T14:28:42;4.80;;;4.70;;
3943;SDS011;1986;52.546;13.428;2022-12-29T14:31:46;5.20;;;5.10;;
3943;SDS011;1986;52.546;13.428;2022-12-29T14:34:33;5.67;;;5.57;;
3943;SDS011;1986;52.546;13.428;2022-12-29T14:37:22;5.43;;;5.00;;
3943;SDS011;1986;52.546;13.428;2022-12-29T14:40:19;5.27;;;5.17;;
3943;SDS011;1986;52.546;13.428;2022-12-29T14:43:05;5.67;;;5.57;;
3943;SDS011;1986;52.546;13.428;2022-12-29T14:46:12;6.37;;;6.17;;
3943;SDS011;1986;52.546;13.428;2022-12-29T14:48:43;5.20;;;5.10;;
3943;SDS011;1986;52.546;13.428;2022-12-29T14:51:24;4.93;;;4.83;;
3943;SDS011;1986;52.546;13.428;2022-12-29T14:53:58;5.50;;;5.40;;
3943;SDS011;1986;52.546;13.428;2022-12-29T14:56:27;5.63;;;5.53;;
3943;SDS011;1986;52.546;13.428;2022-12-29T14:58:57;5.50;;;5.40;;
3943;SDS011;1986;52.546;13.428;2022-12-29T15:01:36;6.03;;;5.93;;
3943;SDS011;1986;52.546;13.428;2022-12-29T15:04:13;4.97;;;4.87;;
3943;SDS011;1986;52.546;13.428;2022-12-29T15:06:45;5.10;;;5.00;;
3943;SDS011;1986;52.546;13.428;2022-12-29T15:09:20;5.40;;;5.30;;
3943;SDS011;1986;52.546;13.428;2022-12-29T15:11:55;6.07;;;5.87;;
3943;SDS011;1986;52.546;13.428;2022-12-29T15:14:36;6.40;;;6.00;;
3943;SDS011;1986;52.546;13.428;2022-12-29T15:17:09;7.47;;;6.73;;
3943;SDS011;1986;52.546;13.428;2022-12-29T15:20:19;11.73;;;6.30;;
3943;SDS011;1986;52.546;13.428;2022-12-29T15:22:50;7.50;;;6.97;;
3943;SDS011;1986;52.546;13.428;2022-12-29T15:25:24;7.00;;;6.53;;